JTC232 KTLH-KSJC
Flight info
| Callsign | JTC232 |
|---|---|
| Flight time | N/A |
| Altitude | 43000 |
| Route | DCT HRV DCT LCH DCT ACT J50 ABI DCT ESPAN DCT RSK DCT HASSL Q130 ROCCY Q164 KATTS Q136 RUMPS DCT OAL DCT KNGRY RAZRR5 |
| Aircraft | C750/M-SDE3FGHIRWY/LB1 |
Departure
| Time | 2026-04-14 22:24 |
|---|---|
| Airport | Tallahassee International Airport (KTLH) |
Arrival
| Time | N/A |
|---|---|
| Airport | Norman Y. Mineta San Jose International Airport (KSJC) |
| Time | Latitude | Longitude | Altitude | Speed | Heading |
|---|---|---|---|---|---|
| 2026-04-14 22:13 | 30.39622 | -84.35509 | 66 ft | 0 kts | 69° |
| 2026-04-14 22:18 | 30.39622 | -84.35507 | 66 ft | 2 kts | 72° |
| 2026-04-14 22:18 | 30.39606 | -84.35483 | 62 ft | 7 kts | 169° |
| 2026-04-14 22:18 | 30.39586 | -84.35538 | 66 ft | 9 kts | 269° |
| 2026-04-14 22:19 | 30.39597 | -84.35615 | 65 ft | 13 kts | 287° |
| 2026-04-14 22:19 | 30.39739 | -84.35676 | 66 ft | 12 kts | 330° |
| 2026-04-14 22:19 | 30.39831 | -84.35739 | 68 ft | 16 kts | 331° |
| 2026-04-14 22:20 | 30.39935 | -84.35756 | 68 ft | 15 kts | 359° |
| 2026-04-14 22:20 | 30.40044 | -84.35757 | 68 ft | 16 kts | 359° |
| 2026-04-14 22:20 | 30.40160 | -84.35758 | 65 ft | 16 kts | 360° |
| 2026-04-14 22:20 | 30.40270 | -84.35759 | 68 ft | 17 kts | 359° |
| 2026-04-14 22:21 | 30.40394 | -84.35761 | 66 ft | 17 kts | 359° |
| 2026-04-14 22:21 | 30.40508 | -84.35762 | 65 ft | 16 kts | 360° |
| 2026-04-14 22:21 | 30.40617 | -84.35763 | 68 ft | 17 kts | 359° |
| 2026-04-14 22:21 | 30.40752 | -84.35765 | 66 ft | 22 kts | 359° |
| 2026-04-14 22:22 | 30.40892 | -84.35765 | 69 ft | 19 kts | 359° |
| 2026-04-14 22:22 | 30.41026 | -84.35768 | 66 ft | 20 kts | 360° |
| 2026-04-14 22:22 | 30.41163 | -84.35768 | 64 ft | 18 kts | 360° |
| 2026-04-14 22:22 | 30.41236 | -84.35819 | 69 ft | 12 kts | 271° |
| 2026-04-14 22:23 | 30.41217 | -84.35895 | 68 ft | 9 kts | 207° |
| 2026-04-14 22:23 | 30.41114 | -84.35897 | 70 ft | 42 kts | 180° |
| 2026-04-14 22:23 | 30.40452 | -84.35890 | 73 ft | 136 kts | 179° |
| 2026-04-14 22:23 | 30.39444 | -84.35886 | 504 ft | 155 kts | 178° |
| 2026-04-14 22:24 | 30.38300 | -84.35875 | 1025 ft | 172 kts | 179° |
| 2026-04-14 22:24 | 30.37058 | -84.35860 | 1557 ft | 191 kts | 179° |
| 2026-04-14 22:24 | 30.35690 | -84.36264 | 1889 ft | 225 kts | 212° |
| 2026-04-14 22:24 | 30.34749 | -84.37838 | 2256 ft | 259 kts | 253° |
| 2026-04-14 22:25 | 30.34602 | -84.39922 | 3220 ft | 259 kts | 268° |
| 2026-04-14 22:25 | 30.34597 | -84.42014 | 4192 ft | 263 kts | 268° |
| 2026-04-14 22:25 | 30.34486 | -84.44141 | 5118 ft | 266 kts | 264° |
| 2026-04-14 22:25 | 30.34303 | -84.46295 | 6009 ft | 270 kts | 264° |
| 2026-04-14 22:26 | 30.34144 | -84.48481 | 6886 ft | 274 kts | 265° |
| 2026-04-14 22:26 | 30.34005 | -84.50696 | 7764 ft | 278 kts | 265° |
| 2026-04-14 22:26 | 30.33855 | -84.52948 | 8689 ft | 283 kts | 264° |
| 2026-04-14 22:26 | 30.33750 | -84.54458 | 9295 ft | 286 kts | 264° |
| 2026-04-14 22:27 | 30.33590 | -84.56777 | 10139 ft | 291 kts | 264° |
| 2026-04-14 22:27 | 30.33423 | -84.59198 | 10439 ft | 314 kts | 264° |
| 2026-04-14 22:27 | 30.33242 | -84.61835 | 10505 ft | 342 kts | 264° |
| 2026-04-14 22:27 | 30.33049 | -84.64653 | 10881 ft | 354 kts | 264° |
| 2026-04-14 22:28 | 30.32856 | -84.67490 | 11665 ft | 354 kts | 265° |
| 2026-04-14 22:28 | 30.32657 | -84.70348 | 12334 ft | 357 kts | 265° |
| 2026-04-14 22:28 | 30.32455 | -84.73231 | 12991 ft | 361 kts | 265° |
| 2026-04-14 22:28 | 30.32253 | -84.76137 | 13723 ft | 362 kts | 265° |
| 2026-04-14 22:29 | 30.32052 | -84.79012 | 14342 ft | 365 kts | 265° |
| 2026-04-14 22:29 | 30.31846 | -84.81950 | 14914 ft | 368 kts | 265° |
| 2026-04-14 22:29 | 30.31637 | -84.84912 | 15479 ft | 371 kts | 265° |
| 2026-04-14 22:29 | 30.31426 | -84.87905 | 16053 ft | 374 kts | 265° |
| 2026-04-14 22:30 | 30.31212 | -84.90919 | 16686 ft | 377 kts | 265° |
| 2026-04-14 22:30 | 30.30997 | -84.93948 | 17311 ft | 380 kts | 265° |
| 2026-04-14 22:30 | 30.30779 | -84.97007 | 17945 ft | 383 kts | 265° |
| 2026-04-14 22:30 | 30.30558 | -85.00095 | 18587 ft | 386 kts | 265° |
| 2026-04-14 22:31 | 30.30334 | -85.03208 | 19159 ft | 389 kts | 265° |
| 2026-04-14 22:31 | 30.30108 | -85.06344 | 19763 ft | 391 kts | 265° |
| 2026-04-14 22:31 | 30.29880 | -85.09499 | 20363 ft | 395 kts | 265° |
| 2026-04-14 22:31 | 30.29649 | -85.12680 | 20904 ft | 400 kts | 265° |
| 2026-04-14 22:32 | 30.29415 | -85.15900 | 21499 ft | 402 kts | 265° |
| 2026-04-14 22:32 | 30.29178 | -85.19141 | 22101 ft | 406 kts | 265° |
| 2026-04-14 22:32 | 30.28942 | -85.22366 | 22681 ft | 409 kts | 265° |
| 2026-04-14 22:32 | 30.28700 | -85.25663 | 23241 ft | 413 kts | 265° |
| 2026-04-14 22:33 | 30.28453 | -85.29001 | 23783 ft | 417 kts | 265° |
| 2026-04-14 22:33 | 30.28204 | -85.32354 | 24302 ft | 420 kts | 265° |
| 2026-04-14 22:33 | 30.27954 | -85.35728 | 24798 ft | 423 kts | 265° |
| 2026-04-14 22:33 | 30.27699 | -85.39136 | 25273 ft | 426 kts | 265° |
| 2026-04-14 22:34 | 30.27443 | -85.42561 | 25756 ft | 429 kts | 265° |
| 2026-04-14 22:34 | 30.27184 | -85.46019 | 26262 ft | 433 kts | 265° |
| 2026-04-14 22:34 | 30.26921 | -85.49503 | 26735 ft | 436 kts | 265° |
| 2026-04-14 22:34 | 30.26656 | -85.53008 | 27224 ft | 439 kts | 265° |
| 2026-04-14 22:35 | 30.26388 | -85.56535 | 27704 ft | 442 kts | 265° |
| 2026-04-14 22:35 | 30.26117 | -85.60083 | 28190 ft | 444 kts | 265° |
| 2026-04-14 22:35 | 30.25844 | -85.63658 | 28663 ft | 447 kts | 265° |
| 2026-04-14 22:35 | 30.25568 | -85.67255 | 29124 ft | 450 kts | 265° |
| 2026-04-14 22:36 | 30.25289 | -85.70875 | 29580 ft | 453 kts | 265° |
| 2026-04-14 22:36 | 30.25008 | -85.74516 | 30017 ft | 456 kts | 266° |
| 2026-04-14 22:36 | 30.24724 | -85.78176 | 30418 ft | 459 kts | 266° |
| 2026-04-14 22:36 | 30.24441 | -85.81809 | 30787 ft | 461 kts | 265° |
| 2026-04-14 22:37 | 30.24152 | -85.85511 | 31149 ft | 463 kts | 265° |
| 2026-04-14 22:37 | 30.23861 | -85.89215 | 31710 ft | 461 kts | 265° |
| 2026-04-14 22:37 | 30.23571 | -85.92899 | 32270 ft | 459 kts | 265° |
| 2026-04-14 22:37 | 30.23281 | -85.96564 | 32820 ft | 457 kts | 265° |
| 2026-04-14 22:38 | 30.22991 | -86.00221 | 33363 ft | 456 kts | 265° |
| 2026-04-14 22:38 | 30.22702 | -86.03866 | 33909 ft | 454 kts | 265° |
| 2026-04-14 22:38 | 30.22411 | -86.07497 | 34421 ft | 453 kts | 265° |
| 2026-04-14 22:38 | 30.22121 | -86.11116 | 34913 ft | 451 kts | 266° |
| 2026-04-14 22:39 | 30.21832 | -86.14717 | 35428 ft | 449 kts | 266° |
| 2026-04-14 22:39 | 30.21543 | -86.18300 | 35954 ft | 447 kts | 266° |
| 2026-04-14 22:39 | 30.21254 | -86.21863 | 36495 ft | 444 kts | 266° |
| 2026-04-14 22:39 | 30.20966 | -86.25404 | 37047 ft | 441 kts | 266° |
| 2026-04-14 22:40 | 30.20679 | -86.28929 | 37586 ft | 439 kts | 266° |
| 2026-04-14 22:40 | 30.20392 | -86.32441 | 38146 ft | 437 kts | 266° |
| 2026-04-14 22:40 | 30.20105 | -86.35935 | 38719 ft | 435 kts | 266° |
| 2026-04-14 22:40 | 30.19823 | -86.39363 | 39199 ft | 433 kts | 266° |
| 2026-04-14 22:41 | 30.19537 | -86.42823 | 39645 ft | 432 kts | 266° |
| 2026-04-14 22:41 | 30.19252 | -86.46269 | 40087 ft | 430 kts | 266° |
| 2026-04-14 22:41 | 30.18966 | -86.49705 | 40528 ft | 429 kts | 266° |
| 2026-04-14 22:41 | 30.18681 | -86.53127 | 40964 ft | 427 kts | 266° |
| 2026-04-14 22:42 | 30.18395 | -86.56537 | 41396 ft | 426 kts | 266° |
| 2026-04-14 22:42 | 30.18110 | -86.59937 | 41851 ft | 424 kts | 266° |
| 2026-04-14 22:42 | 30.17826 | -86.63315 | 42296 ft | 422 kts | 266° |
| 2026-04-14 22:42 | 30.17541 | -86.66684 | 42705 ft | 420 kts | 266° |
| 2026-04-14 22:43 | 30.17254 | -86.70076 | 43098 ft | 417 kts | 267° |
| 2026-04-14 22:43 | 30.16685 | -86.76794 | 43196 ft | 430 kts | 267° |
| 2026-04-14 22:44 | 30.16086 | -86.83772 | 43207 ft | 443 kts | 266° |
| 2026-04-14 22:44 | 30.15468 | -86.90947 | 43202 ft | 450 kts | 266° |
| 2026-04-14 22:45 | 30.14843 | -86.98150 | 43211 ft | 450 kts | 266° |
| 2026-04-14 22:45 | 30.14216 | -87.05342 | 43213 ft | 450 kts | 266° |
| 2026-04-14 22:46 | 30.13583 | -87.12540 | 43202 ft | 450 kts | 266° |
| 2026-04-14 22:46 | 30.12947 | -87.19744 | 43201 ft | 450 kts | 266° |
| 2026-04-14 22:47 | 30.12307 | -87.26942 | 43203 ft | 451 kts | 266° |
| 2026-04-14 22:47 | 30.11662 | -87.34141 | 43194 ft | 450 kts | 266° |
| 2026-04-14 22:48 | 30.11015 | -87.41321 | 43198 ft | 450 kts | 266° |
| 2026-04-14 22:48 | 30.10370 | -87.48453 | 43199 ft | 450 kts | 266° |
| 2026-04-14 22:49 | 30.09714 | -87.55647 | 43190 ft | 450 kts | 266° |
| 2026-04-14 22:49 | 30.09055 | -87.62825 | 43190 ft | 450 kts | 266° |
| 2026-04-14 22:50 | 30.08392 | -87.70014 | 43187 ft | 450 kts | 266° |
| 2026-04-14 22:50 | 30.07725 | -87.77180 | 43184 ft | 448 kts | 266° |
| 2026-04-14 22:51 | 30.07058 | -87.84345 | 43186 ft | 449 kts | 265° |
| 2026-04-14 22:51 | 30.06384 | -87.91511 | 43185 ft | 449 kts | 265° |
| 2026-04-14 22:52 | 30.05707 | -87.98672 | 43187 ft | 449 kts | 265° |
| 2026-04-14 22:52 | 30.05027 | -88.05833 | 43186 ft | 449 kts | 265° |
| 2026-04-14 22:53 | 30.04342 | -88.12988 | 43189 ft | 446 kts | 265° |
| 2026-04-14 22:53 | 30.03658 | -88.20105 | 43184 ft | 446 kts | 265° |
| 2026-04-14 22:54 | 30.02972 | -88.27192 | 43182 ft | 447 kts | 265° |
| 2026-04-14 22:54 | 30.02280 | -88.34316 | 43183 ft | 447 kts | 265° |
| 2026-04-14 22:55 | 30.01583 | -88.41436 | 43183 ft | 447 kts | 265° |
| 2026-04-14 22:55 | 30.00882 | -88.48566 | 43195 ft | 446 kts | 265° |
| 2026-04-14 22:56 | 30.00181 | -88.55639 | 43181 ft | 444 kts | 265° |
| 2026-04-14 22:56 | 29.99478 | -88.62720 | 43183 ft | 444 kts | 265° |
| 2026-04-14 22:57 | 29.98770 | -88.69793 | 43182 ft | 444 kts | 265° |
| 2026-04-14 22:57 | 29.98059 | -88.76869 | 43182 ft | 444 kts | 265° |
| 2026-04-14 22:58 | 29.97343 | -88.83945 | 43179 ft | 444 kts | 265° |
| 2026-04-14 22:58 | 29.96630 | -88.90954 | 43187 ft | 441 kts | 265° |
| 2026-04-14 22:59 | 29.95912 | -88.97992 | 43184 ft | 442 kts | 265° |
| 2026-04-14 22:59 | 29.95188 | -89.05032 | 43185 ft | 442 kts | 265° |
| 2026-04-14 23:00 | 29.94461 | -89.12075 | 43186 ft | 442 kts | 265° |
| 2026-04-14 23:00 | 29.93731 | -89.19107 | 43180 ft | 442 kts | 264° |
| 2026-04-14 23:01 | 29.92996 | -89.26140 | 43187 ft | 440 kts | 264° |
| 2026-04-14 23:01 | 29.92261 | -89.33147 | 43189 ft | 440 kts | 264° |
| 2026-04-14 23:02 | 29.91522 | -89.40158 | 43184 ft | 440 kts | 264° |
| 2026-04-14 23:02 | 29.90783 | -89.47124 | 43185 ft | 440 kts | 264° |
| 2026-04-14 23:03 | 29.90036 | -89.54136 | 43188 ft | 440 kts | 264° |
| 2026-04-14 23:03 | 29.89286 | -89.61141 | 43185 ft | 440 kts | 264° |
| 2026-04-14 23:04 | 29.88532 | -89.68146 | 43182 ft | 440 kts | 264° |
| 2026-04-14 23:04 | 29.87773 | -89.75158 | 43183 ft | 440 kts | 264° |
| 2026-04-14 23:05 | 29.87011 | -89.82161 | 43180 ft | 440 kts | 264° |
| 2026-04-14 23:05 | 29.86246 | -89.89164 | 43177 ft | 441 kts | 264° |
| 2026-04-14 23:06 | 29.85477 | -89.96163 | 43183 ft | 441 kts | 264° |
| 2026-04-14 23:06 | 29.85324 | -90.03185 | 43169 ft | 438 kts | 276° |
| 2026-04-14 23:07 | 29.86064 | -90.10108 | 43179 ft | 438 kts | 277° |
| 2026-04-14 23:07 | 29.86783 | -90.17077 | 43181 ft | 438 kts | 277° |
| 2026-04-14 23:08 | 29.87518 | -90.24049 | 43171 ft | 438 kts | 277° |
| 2026-04-14 23:08 | 29.88238 | -90.31026 | 43170 ft | 438 kts | 277° |
| 2026-04-14 23:09 | 29.88961 | -90.38003 | 43174 ft | 438 kts | 277° |
| 2026-04-14 23:09 | 29.89675 | -90.44971 | 43173 ft | 438 kts | 276° |
| 2026-04-14 23:10 | 29.90388 | -90.51939 | 43168 ft | 438 kts | 276° |
| 2026-04-14 23:10 | 29.91095 | -90.58906 | 43169 ft | 438 kts | 276° |
| 2026-04-14 23:11 | 29.91796 | -90.65829 | 43171 ft | 438 kts | 276° |
| 2026-04-14 23:11 | 29.92497 | -90.72803 | 43172 ft | 438 kts | 276° |
| 2026-04-14 23:12 | 29.93194 | -90.79771 | 43170 ft | 437 kts | 276° |
| 2026-04-14 23:12 | 29.93886 | -90.86729 | 43170 ft | 437 kts | 276° |
| 2026-04-14 23:13 | 29.94575 | -90.93695 | 43160 ft | 437 kts | 276° |
| 2026-04-14 23:13 | 29.95260 | -91.00657 | 43154 ft | 437 kts | 276° |
| 2026-04-14 23:14 | 29.95942 | -91.07622 | 43156 ft | 437 kts | 276° |
| 2026-04-14 23:14 | 29.96620 | -91.14587 | 43162 ft | 437 kts | 276° |
| 2026-04-14 23:15 | 29.97177 | -91.20353 | 43165 ft | 435 kts | 276° |
| 2026-04-14 23:15 | 29.97846 | -91.27290 | 43163 ft | 435 kts | 276° |
| 2026-04-14 23:16 | 29.98511 | -91.34238 | 43162 ft | 435 kts | 276° |
| 2026-04-14 23:16 | 29.99173 | -91.41179 | 43160 ft | 435 kts | 276° |
| 2026-04-14 23:17 | 29.99830 | -91.48120 | 43164 ft | 435 kts | 276° |
| 2026-04-14 23:17 | 30.00480 | -91.55016 | 43161 ft | 434 kts | 276° |
| 2026-04-14 23:18 | 30.01451 | -91.65393 | 43157 ft | 434 kts | 275° |
| 2026-04-14 23:18 | 30.02093 | -91.72313 | 43158 ft | 434 kts | 275° |
| 2026-04-14 23:19 | 30.02733 | -91.79238 | 43152 ft | 434 kts | 275° |
| 2026-04-14 23:19 | 30.03368 | -91.86161 | 43147 ft | 434 kts | 275° |
| 2026-04-14 23:20 | 30.03999 | -91.93082 | 43151 ft | 433 kts | 275° |
| 2026-04-14 23:20 | 30.04625 | -91.99986 | 43152 ft | 432 kts | 275° |
| 2026-04-14 23:21 | 30.05248 | -92.06887 | 43144 ft | 432 kts | 275° |
| 2026-04-14 23:21 | 30.05863 | -92.13748 | 43145 ft | 432 kts | 275° |
| 2026-04-14 23:22 | 30.06479 | -92.20662 | 43148 ft | 432 kts | 275° |
| 2026-04-14 23:22 | 30.07091 | -92.27569 | 43150 ft | 432 kts | 275° |
| 2026-04-14 23:23 | 30.07697 | -92.34464 | 43149 ft | 431 kts | 275° |
| 2026-04-14 23:23 | 30.08302 | -92.41359 | 43150 ft | 432 kts | 275° |
| 2026-04-14 23:24 | 30.08901 | -92.48261 | 43154 ft | 432 kts | 275° |
| 2026-04-14 23:24 | 30.09496 | -92.55150 | 43146 ft | 430 kts | 275° |
| 2026-04-14 23:25 | 30.10085 | -92.61992 | 43147 ft | 430 kts | 275° |
| 2026-04-14 23:25 | 30.10672 | -92.68872 | 43149 ft | 430 kts | 275° |
| 2026-04-14 23:26 | 30.11255 | -92.75742 | 43148 ft | 430 kts | 274° |
| 2026-04-14 23:26 | 30.11835 | -92.82616 | 43146 ft | 430 kts | 274° |
| 2026-04-14 23:27 | 30.12411 | -92.89493 | 43145 ft | 430 kts | 274° |
| 2026-04-14 23:27 | 30.12984 | -92.96372 | 43144 ft | 430 kts | 274° |
| 2026-04-14 23:28 | 30.13553 | -93.03251 | 43144 ft | 430 kts | 274° |
| 2026-04-14 23:28 | 30.14365 | -93.10090 | 43131 ft | 432 kts | 282° |
| 2026-04-14 23:29 | 30.16499 | -93.16605 | 43139 ft | 435 kts | 291° |
| 2026-04-14 23:29 | 30.18963 | -93.23002 | 43138 ft | 435 kts | 290° |
| 2026-04-14 23:30 | 30.21430 | -93.29396 | 43137 ft | 435 kts | 291° |
| 2026-04-14 23:30 | 30.23878 | -93.35758 | 43138 ft | 435 kts | 290° |
| 2026-04-14 23:31 | 30.26337 | -93.42159 | 43126 ft | 436 kts | 291° |
| 2026-04-14 23:31 | 30.28794 | -93.48567 | 43126 ft | 436 kts | 290° |
| 2026-04-14 23:32 | 30.31249 | -93.54980 | 43119 ft | 436 kts | 290° |
| 2026-04-14 23:32 | 30.33699 | -93.61391 | 43119 ft | 436 kts | 290° |
| 2026-04-14 23:33 | 30.36144 | -93.67802 | 43105 ft | 434 kts | 290° |
| 2026-04-14 23:33 | 30.38585 | -93.74211 | 43104 ft | 435 kts | 290° |
| 2026-04-14 23:34 | 30.41023 | -93.80627 | 43112 ft | 435 kts | 290° |
| 2026-04-14 23:34 | 30.42239 | -93.83831 | 43423 ft | 429 kts | 290° |
| 2026-04-14 23:34 | 30.43404 | -93.86890 | 44822 ft | 402 kts | 290° |
| 2026-04-14 23:35 | 30.44514 | -93.89816 | 45345 ft | 394 kts | 290° |
| 2026-04-14 23:35 | 30.45598 | -93.92703 | 45510 ft | 396 kts | 290° |
| 2026-04-14 23:35 | 30.46702 | -93.95626 | 45737 ft | 396 kts | 290° |
| 2026-04-14 23:35 | 30.47809 | -93.98545 | 45967 ft | 395 kts | 290° |
| 2026-04-14 23:36 | 30.48913 | -94.01462 | 46186 ft | 395 kts | 290° |
| 2026-04-14 23:36 | 30.50013 | -94.04382 | 46392 ft | 395 kts | 290° |
| 2026-04-14 23:36 | 30.51113 | -94.07303 | 46585 ft | 395 kts | 290° |
| 2026-04-14 23:36 | 30.52216 | -94.10227 | 46770 ft | 395 kts | 290° |
| 2026-04-14 23:37 | 30.53314 | -94.13144 | 46945 ft | 395 kts | 290° |
| 2026-04-14 23:37 | 30.54409 | -94.16053 | 47096 ft | 392 kts | 290° |
| 2026-04-14 23:37 | 30.56612 | -94.21924 | 47094 ft | 401 kts | 289° |
| 2026-04-14 23:38 | 30.58866 | -94.27930 | 47094 ft | 410 kts | 289° |
| 2026-04-14 23:38 | 30.61162 | -94.34063 | 47094 ft | 418 kts | 289° |
| 2026-04-14 23:39 | 30.63496 | -94.40307 | 47101 ft | 424 kts | 289° |
| 2026-04-14 23:39 | 30.65843 | -94.46593 | 47086 ft | 424 kts | 289° |
| 2026-04-14 23:40 | 30.68173 | -94.52850 | 47082 ft | 425 kts | 289° |
| 2026-04-14 23:40 | 30.70475 | -94.59030 | 46741 ft | 405 kts | 289° |
| 2026-04-14 23:41 | 30.71580 | -94.62009 | 46330 ft | 398 kts | 289° |
| 2026-04-14 23:41 | 30.72670 | -94.64956 | 45839 ft | 396 kts | 289° |
| 2026-04-14 23:41 | 30.73758 | -94.67895 | 45345 ft | 395 kts | 289° |
| 2026-04-14 23:41 | 30.74848 | -94.70833 | 44862 ft | 395 kts | 289° |
| 2026-04-14 23:42 | 30.75937 | -94.73776 | 44298 ft | 396 kts | 289° |
| 2026-04-14 23:42 | 30.77027 | -94.76727 | 43729 ft | 399 kts | 289° |
| 2026-04-14 23:42 | 30.78125 | -94.79701 | 43176 ft | 401 kts | 289° |
| 2026-04-14 23:42 | 30.79231 | -94.82694 | 42639 ft | 404 kts | 289° |
| 2026-04-14 23:43 | 30.80343 | -94.85707 | 42112 ft | 406 kts | 289° |
| 2026-04-14 23:43 | 30.81457 | -94.88730 | 41593 ft | 408 kts | 289° |
| 2026-04-14 23:43 | 30.82577 | -94.91773 | 41087 ft | 410 kts | 289° |
| 2026-04-14 23:43 | 30.83700 | -94.94826 | 40608 ft | 412 kts | 289° |
| 2026-04-14 23:44 | 30.84838 | -94.97926 | 40133 ft | 423 kts | 288° |
| 2026-04-14 23:44 | 30.85973 | -95.01016 | 40080 ft | 420 kts | 288° |
| 2026-04-14 23:44 | 30.88285 | -95.07312 | 40072 ft | 424 kts | 288° |
| 2026-04-14 23:45 | 30.90599 | -95.13635 | 40068 ft | 425 kts | 288° |
| 2026-04-14 23:45 | 30.92912 | -95.19964 | 40060 ft | 425 kts | 288° |
| 2026-04-14 23:46 | 30.95221 | -95.26298 | 40045 ft | 425 kts | 288° |
| 2026-04-14 23:46 | 30.97553 | -95.32712 | 40053 ft | 437 kts | 288° |
| 2026-04-14 23:47 | 30.99950 | -95.39297 | 40056 ft | 444 kts | 288° |
| 2026-04-14 23:47 | 31.02361 | -95.45944 | 40052 ft | 445 kts | 288° |
| 2026-04-14 23:48 | 31.04771 | -95.52601 | 40050 ft | 445 kts | 288° |
| 2026-04-14 23:48 | 31.07180 | -95.59268 | 40047 ft | 446 kts | 288° |